Main page
METAR-TAF:

METAR-TAF

Airports :

Luxeuil Air Base

Luxeuil-les-Bains, France

latitude: 47-47N, longitude: 006-21E, elevation: 278 m

Current weather observation

The report was made 41 minutes ago, at 15:00 UTC
Wind 7 kt from the South, varying between East/Southeast and South/Southwest
Temperature 17°C
Humidity 27%
Pressure 1020 hPa
Visibility 10 km or more
no clouds below 1500 m and no cumulonimbus

METAR: LFSX 041500Z AUTO 17007KT 120V200 CAVOK 17/M02 Q1020

Time: 17:41 (15:41 UTC)

Forecast

The report was made 1 hour and 41 minutes ago, at 14:00 UTC
Forecast valid from 04 at 15 UTC to 05 at 15 UTC
Wind 5 kt from the East/Southeast
Visibility 10 km or more
no clouds below 1500 m and no cumulonimbus

TAF: LFSX 041400Z 0415/0515 11005KT CAVOK

Weather observations and forecasts of more than 4000 airports (METAR and TAF reports).

The available stations are represented by yellow and red dots on the map.

Hover mouse over dot to see the name of the station.

Then click to see weather observations and forecasts.

To change the map : click on the green buttons with a black cross to zoom in, on the green button with a dash to zoom out, or on the green arrows for adjacent maps.


METAR-TAF: